sensor_id;sensor_type;location;lat;lon;timestamp;P1;durP1;ratioP1;P2;durP2;ratioP2
81036;SDS011;70521;47.468;19.306;2023-07-31T00:02:26;1.70;;;1.60;;
81036;SDS011;70521;47.468;19.306;2023-07-31T00:05:27;2.10;;;1.90;;
81036;SDS011;70521;47.468;19.306;2023-07-31T00:08:28;2.38;;;2.00;;
81036;SDS011;70521;47.468;19.306;2023-07-31T00:11:30;3.45;;;1.83;;
81036;SDS011;70521;47.468;19.306;2023-07-31T00:14:31;2.38;;;1.88;;
81036;SDS011;70521;47.468;19.306;2023-07-31T00:17:32;2.35;;;2.15;;
81036;SDS011;70521;47.468;19.306;2023-07-31T00:20:33;1.55;;;1.38;;
81036;SDS011;70521;47.468;19.306;2023-07-31T00:23:34;2.17;;;1.98;;
81036;SDS011;70521;47.468;19.306;2023-07-31T00:26:35;2.20;;;2.00;;
81036;SDS011;70521;47.468;19.306;2023-07-31T00:29:36;2.30;;;2.10;;
81036;SDS011;70521;47.468;19.306;2023-07-31T00:32:39;1.77;;;1.55;;
81036;SDS011;70521;47.468;19.306;2023-07-31T00:35:40;2.10;;;1.70;;
81036;SDS011;70521;47.468;19.306;2023-07-31T00:38:41;2.13;;;1.90;;
81036;SDS011;70521;47.468;19.306;2023-07-31T00:41:42;3.53;;;2.20;;
81036;SDS011;70521;47.468;19.306;2023-07-31T00:44:43;2.15;;;1.95;;
81036;SDS011;70521;47.468;19.306;2023-07-31T00:47:44;2.10;;;1.60;;
81036;SDS011;70521;47.468;19.306;2023-07-31T00:50:45;2.80;;;2.28;;
81036;SDS011;70521;47.468;19.306;2023-07-31T00:53:46;2.92;;;1.77;;
81036;SDS011;70521;47.468;19.306;2023-07-31T00:56:48;1.83;;;1.52;;
81036;SDS011;70521;47.468;19.306;2023-07-31T00:59:51;1.83;;;1.70;;
81036;SDS011;70521;47.468;19.306;2023-07-31T01:02:52;2.25;;;1.90;;
81036;SDS011;70521;47.468;19.306;2023-07-31T01:06:02;1.58;;;1.48;;
81036;SDS011;70521;47.468;19.306;2023-07-31T01:12:07;1.95;;;1.83;;
81036;SDS011;70521;47.468;19.306;2023-07-31T01:15:09;2.63;;;2.17;;
81036;SDS011;70521;47.468;19.306;2023-07-31T01:18:13;2.20;;;1.88;;
81036;SDS011;70521;47.468;19.306;2023-07-31T01:28:27;3.38;;;2.33;;
81036;SDS011;70521;47.468;19.306;2023-07-31T01:31:07;2.10;;;1.80;;
81036;SDS011;70521;47.468;19.306;2023-07-31T01:34:11;2.33;;;1.90;;
81036;SDS011;70521;47.468;19.306;2023-07-31T01:37:13;2.60;;;1.90;;
81036;SDS011;70521;47.468;19.306;2023-07-31T01:40:14;2.17;;;1.77;;
81036;SDS011;70521;47.468;19.306;2023-07-31T01:43:15;2.55;;;1.95;;
81036;SDS011;70521;47.468;19.306;2023-07-31T01:46:16;1.95;;;1.75;;
81036;SDS011;70521;47.468;19.306;2023-07-31T01:49:17;2.30;;;1.88;;
81036;SDS011;70521;47.468;19.306;2023-07-31T01:52:18;2.28;;;2.08;;
81036;SDS011;70521;47.468;19.306;2023-07-31T01:55:20;2.33;;;1.92;;
81036;SDS011;70521;47.468;19.306;2023-07-31T01:58:21;1.80;;;1.70;;
81036;SDS011;70521;47.468;19.306;2023-07-31T02:01:22;2.17;;;1.98;;
81036;SDS011;70521;47.468;19.306;2023-07-31T02:04:23;2.20;;;2.00;;
81036;SDS011;70521;47.468;19.306;2023-07-31T02:07:24;2.50;;;2.30;;
81036;SDS011;70521;47.468;19.306;2023-07-31T02:10:25;4.90;;;2.78;;
81036;SDS011;70521;47.468;19.306;2023-07-31T02:13:26;3.35;;;2.30;;
81036;SDS011;70521;47.468;19.306;2023-07-31T02:16:27;2.63;;;2.35;;
81036;SDS011;70521;47.468;19.306;2023-07-31T02:19:28;2.35;;;1.95;;
81036;SDS011;70521;47.468;19.306;2023-07-31T02:22:29;2.40;;;2.20;;
81036;SDS011;70521;47.468;19.306;2023-07-31T02:25:31;3.33;;;3.03;;
81036;SDS011;70521;47.468;19.306;2023-07-31T02:28:32;2.65;;;2.45;;
81036;SDS011;70521;47.468;19.306;2023-07-31T02:31:33;3.08;;;2.78;;
81036;SDS011;70521;47.468;19.306;2023-07-31T02:34:34;2.90;;;2.58;;
81036;SDS011;70521;47.468;19.306;2023-07-31T02:37:35;2.40;;;2.08;;
81036;SDS011;70521;47.468;19.306;2023-07-31T02:40:37;3.03;;;2.72;;
81036;SDS011;70521;47.468;19.306;2023-07-31T02:43:38;2.33;;;2.10;;
81036;SDS011;70521;47.468;19.306;2023-07-31T02:46:39;2.20;;;1.92;;
81036;SDS011;70521;47.468;19.306;2023-07-31T02:49:40;2.38;;;2.17;;
81036;SDS011;70521;47.468;19.306;2023-07-31T02:52:41;2.80;;;2.60;;
81036;SDS011;70521;47.468;19.306;2023-07-31T02:55:43;1.88;;;1.67;;
81036;SDS011;70521;47.468;19.306;2023-07-31T02:58:44;2.00;;;1.80;;
81036;SDS011;70521;47.468;19.306;2023-07-31T03:01:45;2.65;;;2.42;;
81036;SDS011;70521;47.468;19.306;2023-07-31T03:04:46;2.15;;;1.88;;
81036;SDS011;70521;47.468;19.306;2023-07-31T03:07:47;3.05;;;2.75;;
81036;SDS011;70521;47.468;19.306;2023-07-31T03:10:48;2.55;;;2.35;;
81036;SDS011;70521;47.468;19.306;2023-07-31T03:13:49;2.50;;;2.30;;
81036;SDS011;70521;47.468;19.306;2023-07-31T03:16:50;1.90;;;1.70;;
81036;SDS011;70521;47.468;19.306;2023-07-31T03:19:52;2.50;;;2.22;;
81036;SDS011;70521;47.468;19.306;2023-07-31T03:22:53;2.47;;;2.28;;
81036;SDS011;70521;47.468;19.306;2023-07-31T03:25:57;2.38;;;2.17;;
81036;SDS011;70521;47.468;19.306;2023-07-31T03:29:02;2.30;;;1.92;;
81036;SDS011;70521;47.468;19.306;2023-07-31T03:32:03;2.50;;;2.28;;
81036;SDS011;70521;47.468;19.306;2023-07-31T03:35:05;3.42;;;2.70;;
81036;SDS011;70521;47.468;19.306;2023-07-31T03:38:06;2.63;;;2.42;;
81036;SDS011;70521;47.468;19.306;2023-07-31T03:41:07;3.03;;;2.20;;
81036;SDS011;70521;47.468;19.306;2023-07-31T03:44:08;2.22;;;1.98;;
81036;SDS011;70521;47.468;19.306;2023-07-31T03:47:09;3.33;;;3.10;;
81036;SDS011;70521;47.468;19.306;2023-07-31T03:50:12;2.92;;;2.22;;
81036;SDS011;70521;47.468;19.306;2023-07-31T03:53:13;2.88;;;2.63;;
81036;SDS011;70521;47.468;19.306;2023-07-31T03:56:15;2.80;;;2.58;;
81036;SDS011;70521;47.468;19.306;2023-07-31T03:59:16;3.05;;;2.40;;
81036;SDS011;70521;47.468;19.306;2023-07-31T04:02:17;2.67;;;2.22;;
81036;SDS011;70521;47.468;19.306;2023-07-31T04:05:19;2.55;;;2.35;;
81036;SDS011;70521;47.468;19.306;2023-07-31T04:08:20;3.47;;;2.65;;
81036;SDS011;70521;47.468;19.306;2023-07-31T04:11:21;2.75;;;2.33;;
81036;SDS011;70521;47.468;19.306;2023-07-31T04:14:22;2.40;;;2.20;;
81036;SDS011;70521;47.468;19.306;2023-07-31T04:17:24;2.13;;;1.77;;
81036;SDS011;70521;47.468;19.306;2023-07-31T04:20:25;2.75;;;1.92;;
81036;SDS011;70521;47.468;19.306;2023-07-31T04:23:26;2.22;;;2.03;;
81036;SDS011;70521;47.468;19.306;2023-07-31T04:26:27;4.22;;;2.17;;
81036;SDS011;70521;47.468;19.306;2023-07-31T04:29:28;2.70;;;2.17;;
81036;SDS011;70521;47.468;19.306;2023-07-31T04:32:29;2.08;;;1.88;;
81036;SDS011;70521;47.468;19.306;2023-07-31T04:35:30;2.65;;;2.38;;
81036;SDS011;70521;47.468;19.306;2023-07-31T04:38:31;1.90;;;1.70;;
81036;SDS011;70521;47.468;19.306;2023-07-31T04:41:32;1.95;;;1.65;;
81036;SDS011;70521;47.468;19.306;2023-07-31T04:44:34;2.35;;;2.00;;
81036;SDS011;70521;47.468;19.306;2023-07-31T04:47:35;2.60;;;2.00;;
81036;SDS011;70521;47.468;19.306;2023-07-31T04:50:36;3.17;;;1.98;;
81036;SDS011;70521;47.468;19.306;2023-07-31T04:53:37;2.20;;;1.92;;
81036;SDS011;70521;47.468;19.306;2023-07-31T04:56:38;2.20;;;1.95;;
81036;SDS011;70521;47.468;19.306;2023-07-31T04:59:39;2.58;;;2.03;;
81036;SDS011;70521;47.468;19.306;2023-07-31T05:02:40;2.50;;;2.30;;
81036;SDS011;70521;47.468;19.306;2023-07-31T05:05:41;4.38;;;2.22;;
81036;SDS011;70521;47.468;19.306;2023-07-31T05:08:42;2.83;;;2.00;;
81036;SDS011;70521;47.468;19.306;2023-07-31T05:11:43;2.17;;;1.90;;
81036;SDS011;70521;47.468;19.306;2023-07-31T05:14:44;2.10;;;1.90;;
81036;SDS011;70521;47.468;19.306;2023-07-31T05:17:46;1.98;;;1.60;;
81036;SDS011;70521;47.468;19.306;2023-07-31T05:20:47;2.50;;;2.30;;
81036;SDS011;70521;47.468;19.306;2023-07-31T05:23:48;2.50;;;2.30;;
81036;SDS011;70521;47.468;19.306;2023-07-31T05:26:49;2.45;;;2.20;;
81036;SDS011;70521;47.468;19.306;2023-07-31T05:29:53;1.83;;;1.65;;
81036;SDS011;70521;47.468;19.306;2023-07-31T05:32:54;2.03;;;1.83;;
81036;SDS011;70521;47.468;19.306;2023-07-31T05:35:55;1.95;;;1.63;;
81036;SDS011;70521;47.468;19.306;2023-07-31T05:38:56;2.03;;;1.92;;
81036;SDS011;70521;47.468;19.306;2023-07-31T05:41:57;1.98;;;1.48;;
81036;SDS011;70521;47.468;19.306;2023-07-31T05:44:58;2.17;;;1.67;;
81036;SDS011;70521;47.468;19.306;2023-07-31T05:48:00;2.65;;;1.70;;
81036;SDS011;70521;47.468;19.306;2023-07-31T05:51:01;2.78;;;1.50;;
81036;SDS011;70521;47.468;19.306;2023-07-31T05:54:02;2.45;;;1.60;;
81036;SDS011;70521;47.468;19.306;2023-07-31T05:57:03;2.20;;;2.00;;
81036;SDS011;70521;47.468;19.306;2023-07-31T06:00:04;2.13;;;1.75;;
81036;SDS011;70521;47.468;19.306;2023-07-31T06:03:08;2.03;;;1.75;;
81036;SDS011;70521;47.468;19.306;2023-07-31T06:06:09;2.08;;;1.60;;
81036;SDS011;70521;47.468;19.306;2023-07-31T06:09:10;3.05;;;1.60;;
81036;SDS011;70521;47.468;19.306;2023-07-31T06:12:12;2.10;;;1.70;;
81036;SDS011;70521;47.468;19.306;2023-07-31T06:15:13;1.80;;;1.65;;
81036;SDS011;70521;47.468;19.306;2023-07-31T06:18:15;1.88;;;1.33;;
81036;SDS011;70521;47.468;19.306;2023-07-31T06:21:16;2.38;;;1.73;;
81036;SDS011;70521;47.468;19.306;2023-07-31T06:24:17;3.28;;;1.75;;
81036;SDS011;70521;47.468;19.306;2023-07-31T06:27:21;2.15;;;1.40;;
81036;SDS011;70521;47.468;19.306;2023-07-31T06:30:22;2.28;;;1.48;;
81036;SDS011;70521;47.468;19.306;2023-07-31T06:33:23;2.13;;;1.88;;
81036;SDS011;70521;47.468;19.306;2023-07-31T06:36:24;2.20;;;2.00;;
81036;SDS011;70521;47.468;19.306;2023-07-31T06:39:25;1.55;;;1.30;;
81036;SDS011;70521;47.468;19.306;2023-07-31T06:42:27;2.40;;;1.88;;
81036;SDS011;70521;47.468;19.306;2023-07-31T06:45:28;1.92;;;1.83;;
81036;SDS011;70521;47.468;19.306;2023-07-31T06:48:29;2.28;;;1.40;;
81036;SDS011;70521;47.468;19.306;2023-07-31T06:51:30;2.40;;;1.50;;
81036;SDS011;70521;47.468;19.306;2023-07-31T06:54:32;2.40;;;1.88;;
81036;SDS011;70521;47.468;19.306;2023-07-31T06:57:33;2.17;;;1.92;;
81036;SDS011;70521;47.468;19.306;2023-07-31T07:00:34;1.95;;;1.15;;
81036;SDS011;70521;47.468;19.306;2023-07-31T07:03:35;1.85;;;1.50;;
81036;SDS011;70521;47.468;19.306;2023-07-31T07:06:36;1.67;;;1.40;;
81036;SDS011;70521;47.468;19.306;2023-07-31T07:09:37;1.48;;;1.20;;
81036;SDS011;70521;47.468;19.306;2023-07-31T07:12:38;2.10;;;1.60;;
81036;SDS011;70521;47.468;19.306;2023-07-31T07:15:39;2.08;;;1.30;;
81036;SDS011;70521;47.468;19.306;2023-07-31T07:18:41;1.60;;;1.40;;
81036;SDS011;70521;47.468;19.306;2023-07-31T07:21:42;1.98;;;1.60;;
81036;SDS011;70521;47.468;19.306;2023-07-31T07:24:43;1.65;;;1.30;;
81036;SDS011;70521;47.468;19.306;2023-07-31T07:27:44;1.95;;;1.75;;
81036;SDS011;70521;47.468;19.306;2023-07-31T07:30:50;2.55;;;1.88;;
81036;SDS011;70521;47.468;19.306;2023-07-31T07:33:51;1.83;;;1.42;;
81036;SDS011;70521;47.468;19.306;2023-07-31T07:36:52;1.40;;;1.20;;
81036;SDS011;70521;47.468;19.306;2023-07-31T07:39:54;2.00;;;1.80;;
81036;SDS011;70521;47.468;19.306;2023-07-31T07:42:55;1.83;;;1.63;;
81036;SDS011;70521;47.468;19.306;2023-07-31T07:45:56;2.47;;;1.10;;
81036;SDS011;70521;47.468;19.306;2023-07-31T07:48:57;2.58;;;1.50;;
81036;SDS011;70521;47.468;19.306;2023-07-31T07:51:58;2.00;;;1.80;;
81036;SDS011;70521;47.468;19.306;2023-07-31T07:55:00;2.25;;;1.60;;
81036;SDS011;70521;47.468;19.306;2023-07-31T07:58:01;2.10;;;1.60;;
81036;SDS011;70521;47.468;19.306;2023-07-31T08:01:02;2.65;;;2.45;;
81036;SDS011;70521;47.468;19.306;2023-07-31T08:04:03;1.95;;;1.75;;
81036;SDS011;70521;47.468;19.306;2023-07-31T08:07:04;2.65;;;1.70;;
81036;SDS011;70521;47.468;19.306;2023-07-31T08:10:06;1.90;;;1.60;;
81036;SDS011;70521;47.468;19.306;2023-07-31T08:13:08;1.92;;;1.65;;
81036;SDS011;70521;47.468;19.306;2023-07-31T08:16:10;1.75;;;1.30;;
81036;SDS011;70521;47.468;19.306;2023-07-31T08:19:11;1.85;;;1.70;;
81036;SDS011;70521;47.468;19.306;2023-07-31T08:22:12;1.98;;;1.30;;
81036;SDS011;70521;47.468;19.306;2023-07-31T08:25:13;1.60;;;1.40;;
81036;SDS011;70521;47.468;19.306;2023-07-31T08:28:14;1.50;;;1.27;;
81036;SDS011;70521;47.468;19.306;2023-07-31T08:31:15;2.22;;;1.38;;
81036;SDS011;70521;47.468;19.306;2023-07-31T08:34:16;1.92;;;1.30;;
81036;SDS011;70521;47.468;19.306;2023-07-31T08:37:17;2.75;;;1.25;;
81036;SDS011;70521;47.468;19.306;2023-07-31T08:40:18;3.00;;;2.08;;
81036;SDS011;70521;47.468;19.306;2023-07-31T08:43:20;2.00;;;1.52;;
81036;SDS011;70521;47.468;19.306;2023-07-31T08:46:21;2.20;;;1.17;;
81036;SDS011;70521;47.468;19.306;2023-07-31T08:49:22;2.97;;;1.77;;
81036;SDS011;70521;47.468;19.306;2023-07-31T08:52:24;2.13;;;1.50;;
81036;SDS011;70521;47.468;19.306;2023-07-31T08:55:26;1.60;;;1.30;;
81036;SDS011;70521;47.468;19.306;2023-07-31T08:58:30;3.70;;;1.38;;
81036;SDS011;70521;47.468;19.306;2023-07-31T09:01:33;1.92;;;1.40;;
81036;SDS011;70521;47.468;19.306;2023-07-31T09:04:36;1.70;;;1.30;;
81036;SDS011;70521;47.468;19.306;2023-07-31T09:07:37;2.20;;;1.35;;
81036;SDS011;70521;47.468;19.306;2023-07-31T09:10:42;2.58;;;2.13;;
81036;SDS011;70521;47.468;19.306;2023-07-31T09:13:43;1.85;;;1.60;;
81036;SDS011;70521;47.468;19.306;2023-07-31T09:17:27;1.92;;;1.40;;
81036;SDS011;70521;47.468;19.306;2023-07-31T09:20:15;2.45;;;1.25;;
81036;SDS011;70521;47.468;19.306;2023-07-31T09:23:17;2.88;;;1.33;;
81036;SDS011;70521;47.468;19.306;2023-07-31T09:26:36;3.08;;;1.60;;
81036;SDS011;70521;47.468;19.306;2023-07-31T09:29:38;2.05;;;1.30;;
81036;SDS011;70521;47.468;19.306;2023-07-31T09:32:39;1.85;;;1.55;;
81036;SDS011;70521;47.468;19.306;2023-07-31T09:35:40;3.53;;;1.45;;
81036;SDS011;70521;47.468;19.306;2023-07-31T09:38:41;2.15;;;1.67;;
81036;SDS011;70521;47.468;19.306;2023-07-31T09:41:43;1.60;;;1.50;;
81036;SDS011;70521;47.468;19.306;2023-07-31T09:44:45;1.60;;;1.30;;
81036;SDS011;70521;47.468;19.306;2023-07-31T09:47:47;2.42;;;1.33;;
81036;SDS011;70521;47.468;19.306;2023-07-31T09:50:49;1.67;;;1.58;;
81036;SDS011;70521;47.468;19.306;2023-07-31T09:53:50;1.65;;;1.20;;
81036;SDS011;70521;47.468;19.306;2023-07-31T09:56:51;1.63;;;1.23;;
81036;SDS011;70521;47.468;19.306;2023-07-31T09:59:53;1.65;;;1.35;;
81036;SDS011;70521;47.468;19.306;2023-07-31T10:02:55;1.60;;;1.10;;
81036;SDS011;70521;47.468;19.306;2023-07-31T10:05:59;2.22;;;1.15;;
81036;SDS011;70521;47.468;19.306;2023-07-31T10:09:02;1.70;;;1.30;;
81036;SDS011;70521;47.468;19.306;2023-07-31T10:12:04;1.63;;;1.10;;
81036;SDS011;70521;47.468;19.306;2023-07-31T10:15:06;1.15;;;1.00;;
81036;SDS011;70521;47.468;19.306;2023-07-31T10:18:09;1.65;;;1.20;;
81036;SDS011;70521;47.468;19.306;2023-07-31T10:21:11;1.15;;;0.90;;
81036;SDS011;70521;47.468;19.306;2023-07-31T10:24:12;2.10;;;1.60;;
81036;SDS011;70521;47.468;19.306;2023-07-31T10:27:13;1.17;;;1.02;;
81036;SDS011;70521;47.468;19.306;2023-07-31T10:30:15;1.77;;;1.35;;
81036;SDS011;70521;47.468;19.306;2023-07-31T10:33:17;1.50;;;1.25;;
81036;SDS011;70521;47.468;19.306;2023-07-31T10:36:19;1.60;;;1.30;;
81036;SDS011;70521;47.468;19.306;2023-07-31T10:39:33;1.30;;;1.00;;
81036;SDS011;70521;47.468;19.306;2023-07-31T10:42:35;1.55;;;1.15;;
81036;SDS011;70521;47.468;19.306;2023-07-31T10:45:37;1.52;;;1.10;;
81036;SDS011;70521;47.468;19.306;2023-07-31T10:48:39;2.17;;;1.20;;
81036;SDS011;70521;47.468;19.306;2023-07-31T10:51:42;1.70;;;1.10;;
81036;SDS011;70521;47.468;19.306;2023-07-31T10:54:43;1.40;;;1.20;;
81036;SDS011;70521;47.468;19.306;2023-07-31T10:57:44;1.83;;;1.20;;
81036;SDS011;70521;47.468;19.306;2023-07-31T11:00:46;1.60;;;1.02;;
81036;SDS011;70521;47.468;19.306;2023-07-31T11:03:48;1.67;;;1.15;;
81036;SDS011;70521;47.468;19.306;2023-07-31T11:06:56;2.17;;;1.08;;
81036;SDS011;70521;47.468;19.306;2023-07-31T11:09:58;1.35;;;1.00;;
81036;SDS011;70521;47.468;19.306;2023-07-31T11:12:59;2.45;;;1.10;;
81036;SDS011;70521;47.468;19.306;2023-07-31T11:16:00;1.40;;;1.00;;
81036;SDS011;70521;47.468;19.306;2023-07-31T11:19:02;1.25;;;1.08;;
81036;SDS011;70521;47.468;19.306;2023-07-31T11:22:03;1.13;;;0.90;;
81036;SDS011;70521;47.468;19.306;2023-07-31T11:25:05;1.27;;;1.17;;
81036;SDS011;70521;47.468;19.306;2023-07-31T11:28:10;2.30;;;1.17;;
81036;SDS011;70521;47.468;19.306;2023-07-31T11:31:12;1.50;;;1.02;;
81036;SDS011;70521;47.468;19.306;2023-07-31T11:34:13;3.47;;;1.85;;
81036;SDS011;70521;47.468;19.306;2023-07-31T11:37:14;1.00;;;0.90;;
81036;SDS011;70521;47.468;19.306;2023-07-31T11:40:15;2.10;;;1.27;;
81036;SDS011;70521;47.468;19.306;2023-07-31T11:43:17;2.17;;;1.25;;
81036;SDS011;70521;47.468;19.306;2023-07-31T11:46:18;1.42;;;1.20;;
81036;SDS011;70521;47.468;19.306;2023-07-31T11:49:20;2.10;;;1.00;;
81036;SDS011;70521;47.468;19.306;2023-07-31T11:52:21;1.58;;;1.00;;
81036;SDS011;70521;47.468;19.306;2023-07-31T11:55:24;1.70;;;1.05;;
81036;SDS011;70521;47.468;19.306;2023-07-31T11:58:27;1.38;;;1.15;;
81036;SDS011;70521;47.468;19.306;2023-07-31T12:01:28;2.53;;;1.35;;
81036;SDS011;70521;47.468;19.306;2023-07-31T12:04:29;1.98;;;1.20;;
81036;SDS011;70521;47.468;19.306;2023-07-31T12:07:42;1.27;;;1.00;;
81036;SDS011;70521;47.468;19.306;2023-07-31T12:10:44;2.20;;;1.20;;
81036;SDS011;70521;47.468;19.306;2023-07-31T12:13:46;1.63;;;1.20;;
81036;SDS011;70521;47.468;19.306;2023-07-31T12:16:47;2.10;;;1.00;;
81036;SDS011;70521;47.468;19.306;2023-07-31T12:19:48;1.38;;;1.10;;
81036;SDS011;70521;47.468;19.306;2023-07-31T12:22:49;1.60;;;1.50;;
81036;SDS011;70521;47.468;19.306;2023-07-31T12:25:59;1.70;;;1.05;;
81036;SDS011;70521;47.468;19.306;2023-07-31T12:29:01;1.52;;;0.98;;
81036;SDS011;70521;47.468;19.306;2023-07-31T12:32:02;1.50;;;0.90;;
81036;SDS011;70521;47.468;19.306;2023-07-31T12:35:06;1.30;;;1.10;;
81036;SDS011;70521;47.468;19.306;2023-07-31T12:38:07;1.83;;;1.10;;
81036;SDS011;70521;47.468;19.306;2023-07-31T12:41:08;2.70;;;1.33;;
81036;SDS011;70521;47.468;19.306;2023-07-31T12:44:09;1.50;;;1.10;;
81036;SDS011;70521;47.468;19.306;2023-07-31T12:47:11;1.27;;;1.08;;
81036;SDS011;70521;47.468;19.306;2023-07-31T12:50:12;1.88;;;1.30;;
81036;SDS011;70521;47.468;19.306;2023-07-31T12:53:14;2.65;;;1.20;;
81036;SDS011;70521;47.468;19.306;2023-07-31T12:56:15;1.20;;;0.88;;
81036;SDS011;70521;47.468;19.306;2023-07-31T12:59:16;1.23;;;0.98;;
81036;SDS011;70521;47.468;19.306;2023-07-31T13:02:17;1.10;;;1.00;;
81036;SDS011;70521;47.468;19.306;2023-07-31T13:05:19;1.63;;;1.30;;
81036;SDS011;70521;47.468;19.306;2023-07-31T13:08:23;2.03;;;1.83;;
81036;SDS011;70521;47.468;19.306;2023-07-31T13:11:24;2.17;;;1.55;;
81036;SDS011;70521;47.468;19.306;2023-07-31T13:14:25;2.13;;;1.00;;
81036;SDS011;70521;47.468;19.306;2023-07-31T13:17:26;1.80;;;1.20;;
81036;SDS011;70521;47.468;19.306;2023-07-31T13:20:28;1.38;;;1.00;;
81036;SDS011;70521;47.468;19.306;2023-07-31T13:23:29;1.10;;;0.95;;
81036;SDS011;70521;47.468;19.306;2023-07-31T13:26:30;1.58;;;1.10;;
81036;SDS011;70521;47.468;19.306;2023-07-31T13:29:31;1.45;;;1.10;;
81036;SDS011;70521;47.468;19.306;2023-07-31T13:32:33;1.58;;;1.10;;
81036;SDS011;70521;47.468;19.306;2023-07-31T13:35:34;1.10;;;0.93;;
81036;SDS011;70521;47.468;19.306;2023-07-31T13:38:35;1.83;;;0.98;;
81036;SDS011;70521;47.468;19.306;2023-07-31T13:41:36;1.73;;;1.27;;
81036;SDS011;70521;47.468;19.306;2023-07-31T13:44:42;1.42;;;1.20;;
81036;SDS011;70521;47.468;19.306;2023-07-31T13:47:43;1.48;;;1.30;;
81036;SDS011;70521;47.468;19.306;2023-07-31T13:50:44;3.83;;;1.25;;
81036;SDS011;70521;47.468;19.306;2023-07-31T13:53:45;1.55;;;1.10;;
81036;SDS011;70521;47.468;19.306;2023-07-31T13:56:46;2.10;;;1.20;;
81036;SDS011;70521;47.468;19.306;2023-07-31T13:59:47;1.90;;;1.45;;
81036;SDS011;70521;47.468;19.306;2023-07-31T14:02:48;2.42;;;1.67;;
81036;SDS011;70521;47.468;19.306;2023-07-31T14:05:50;1.25;;;1.00;;
81036;SDS011;70521;47.468;19.306;2023-07-31T14:08:51;1.40;;;1.25;;
81036;SDS011;70521;47.468;19.306;2023-07-31T14:11:52;1.70;;;1.13;;
81036;SDS011;70521;47.468;19.306;2023-07-31T14:14:53;1.65;;;1.10;;
81036;SDS011;70521;47.468;19.306;2023-07-31T14:17:54;1.10;;;1.00;;
81036;SDS011;70521;47.468;19.306;2023-07-31T14:20:55;2.35;;;1.35;;
81036;SDS011;70521;47.468;19.306;2023-07-31T14:23:56;1.17;;;0.77;;
81036;SDS011;70521;47.468;19.306;2023-07-31T14:26:57;1.55;;;1.40;;
81036;SDS011;70521;47.468;19.306;2023-07-31T14:30:02;1.92;;;1.00;;
81036;SDS011;70521;47.468;19.306;2023-07-31T14:36:05;1.70;;;1.25;;
81036;SDS011;70521;47.468;19.306;2023-07-31T14:39:06;1.70;;;1.50;;
81036;SDS011;70521;47.468;19.306;2023-07-31T14:42:08;1.77;;;1.40;;
81036;SDS011;70521;47.468;19.306;2023-07-31T14:45:09;1.55;;;1.13;;
81036;SDS011;70521;47.468;19.306;2023-07-31T14:48:11;1.48;;;1.20;;
81036;SDS011;70521;47.468;19.306;2023-07-31T14:51:12;1.90;;;1.40;;
81036;SDS011;70521;47.468;19.306;2023-07-31T14:54:15;2.38;;;1.15;;
81036;SDS011;70521;47.468;19.306;2023-07-31T14:57:16;1.40;;;1.20;;
81036;SDS011;70521;47.468;19.306;2023-07-31T15:00:17;2.28;;;1.45;;
81036;SDS011;70521;47.468;19.306;2023-07-31T15:03:18;1.50;;;1.20;;
81036;SDS011;70521;47.468;19.306;2023-07-31T15:06:19;1.73;;;1.35;;
81036;SDS011;70521;47.468;19.306;2023-07-31T15:09:20;2.28;;;1.40;;
81036;SDS011;70521;47.468;19.306;2023-07-31T15:12:21;1.60;;;1.15;;
81036;SDS011;70521;47.468;19.306;2023-07-31T15:15:23;1.27;;;0.98;;
81036;SDS011;70521;47.468;19.306;2023-07-31T15:18:24;1.67;;;1.23;;
81036;SDS011;70521;47.468;19.306;2023-07-31T15:21:26;1.70;;;1.30;;
81036;SDS011;70521;47.468;19.306;2023-07-31T15:24:27;1.35;;;1.10;;
81036;SDS011;70521;47.468;19.306;2023-07-31T15:27:28;1.20;;;1.00;;
81036;SDS011;70521;47.468;19.306;2023-07-31T15:30:29;1.55;;;1.45;;
81036;SDS011;70521;47.468;19.306;2023-07-31T15:33:30;1.33;;;1.15;;
81036;SDS011;70521;47.468;19.306;2023-07-31T15:36:31;1.23;;;1.05;;
81036;SDS011;70521;47.468;19.306;2023-07-31T15:39:32;1.52;;;1.10;;
81036;SDS011;70521;47.468;19.306;2023-07-31T15:42:34;2.30;;;1.35;;
81036;SDS011;70521;47.468;19.306;2023-07-31T15:45:40;2.00;;;1.20;;
81036;SDS011;70521;47.468;19.306;2023-07-31T15:48:41;1.88;;;1.15;;
81036;SDS011;70521;47.468;19.306;2023-07-31T15:51:42;3.60;;;1.17;;
81036;SDS011;70521;47.468;19.306;2023-07-31T15:54:43;1.98;;;0.90;;
81036;SDS011;70521;47.468;19.306;2023-07-31T15:57:44;1.88;;;1.23;;
81036;SDS011;70521;47.468;19.306;2023-07-31T16:00:45;2.83;;;1.35;;
81036;SDS011;70521;47.468;19.306;2023-07-31T16:03:47;1.90;;;1.20;;
81036;SDS011;70521;47.468;19.306;2023-07-31T16:06:48;2.38;;;1.27;;
81036;SDS011;70521;47.468;19.306;2023-07-31T16:09:50;2.35;;;1.38;;
81036;SDS011;70521;47.468;19.306;2023-07-31T16:12:51;2.10;;;1.20;;
81036;SDS011;70521;47.468;19.306;2023-07-31T16:15:52;1.90;;;0.88;;
81036;SDS011;70521;47.468;19.306;2023-07-31T16:18:54;1.42;;;1.02;;
81036;SDS011;70521;47.468;19.306;2023-07-31T16:21:55;1.52;;;1.00;;
81036;SDS011;70521;47.468;19.306;2023-07-31T16:24:56;1.85;;;1.17;;
81036;SDS011;70521;47.468;19.306;2023-07-31T16:27:57;4.07;;;1.60;;
81036;SDS011;70521;47.468;19.306;2023-07-31T16:30:58;1.90;;;1.38;;
81036;SDS011;70521;47.468;19.306;2023-07-31T16:33:59;2.60;;;1.10;;
81036;SDS011;70521;47.468;19.306;2023-07-31T16:37:00;1.55;;;1.10;;
81036;SDS011;70521;47.468;19.306;2023-07-31T16:40:02;2.05;;;1.13;;
81036;SDS011;70521;47.468;19.306;2023-07-31T16:43:04;3.10;;;1.13;;
81036;SDS011;70521;47.468;19.306;2023-07-31T16:46:05;1.55;;;1.10;;
81036;SDS011;70521;47.468;19.306;2023-07-31T16:49:06;1.85;;;1.25;;
81036;SDS011;70521;47.468;19.306;2023-07-31T16:52:07;1.73;;;1.40;;
81036;SDS011;70521;47.468;19.306;2023-07-31T16:55:09;1.33;;;1.05;;
81036;SDS011;70521;47.468;19.306;2023-07-31T16:58:10;1.73;;;1.48;;
81036;SDS011;70521;47.468;19.306;2023-07-31T17:01:11;1.60;;;1.17;;
81036;SDS011;70521;47.468;19.306;2023-07-31T17:04:12;1.58;;;1.20;;
81036;SDS011;70521;47.468;19.306;2023-07-31T17:07:15;2.05;;;1.27;;
81036;SDS011;70521;47.468;19.306;2023-07-31T17:10:16;1.52;;;1.13;;
81036;SDS011;70521;47.468;19.306;2023-07-31T17:13:17;2.47;;;1.25;;
81036;SDS011;70521;47.468;19.306;2023-07-31T17:16:18;2.20;;;1.40;;
81036;SDS011;70521;47.468;19.306;2023-07-31T17:19:20;1.50;;;1.27;;
81036;SDS011;70521;47.468;19.306;2023-07-31T17:22:21;2.15;;;1.20;;
81036;SDS011;70521;47.468;19.306;2023-07-31T17:25:22;2.05;;;1.30;;
81036;SDS011;70521;47.468;19.306;2023-07-31T17:28:23;2.22;;;1.13;;
81036;SDS011;70521;47.468;19.306;2023-07-31T17:31:24;2.95;;;1.20;;
81036;SDS011;70521;47.468;19.306;2023-07-31T17:34:27;1.75;;;1.15;;
81036;SDS011;70521;47.468;19.306;2023-07-31T17:37:28;1.90;;;1.50;;
81036;SDS011;70521;47.468;19.306;2023-07-31T17:40:29;2.63;;;1.38;;
81036;SDS011;70521;47.468;19.306;2023-07-31T17:43:30;2.80;;;1.77;;
81036;SDS011;70521;47.468;19.306;2023-07-31T17:46:31;2.00;;;1.42;;
81036;SDS011;70521;47.468;19.306;2023-07-31T17:49:32;1.60;;;1.13;;
81036;SDS011;70521;47.468;19.306;2023-07-31T17:52:33;2.17;;;1.48;;
81036;SDS011;70521;47.468;19.306;2023-07-31T17:55:38;2.15;;;1.80;;
81036;SDS011;70521;47.468;19.306;2023-07-31T17:58:40;2.60;;;1.45;;
81036;SDS011;70521;47.468;19.306;2023-07-31T18:01:41;2.40;;;1.73;;
81036;SDS011;70521;47.468;19.306;2023-07-31T18:04:42;1.63;;;1.45;;
81036;SDS011;70521;47.468;19.306;2023-07-31T18:07:44;1.50;;;1.30;;
81036;SDS011;70521;47.468;19.306;2023-07-31T18:10:48;2.10;;;1.88;;